sensor_id;sensor_type;location;lat;lon;timestamp;pressure;altitude;pressure_sealevel;temperature;humidity
20350;BME280;10332;50.208;18.988;2023-01-31T00:01:51;97283.78;;;2.87;100.00
20350;BME280;10332;50.208;18.988;2023-01-31T00:04:18;97293.59;;;2.80;100.00
20350;BME280;10332;50.208;18.988;2023-01-31T00:06:46;97307.53;;;2.76;100.00
20350;BME280;10332;50.208;18.988;2023-01-31T00:09:18;97299.50;;;2.82;100.00
20350;BME280;10332;50.208;18.988;2023-01-31T00:11:46;97297.28;;;2.75;100.00
20350;BME280;10332;50.208;18.988;2023-01-31T00:14:18;97302.44;;;2.75;100.00
20350;BME280;10332;50.208;18.988;2023-01-31T00:16:46;97300.31;;;2.66;100.00
20350;BME280;10332;50.208;18.988;2023-01-31T00:19:13;97306.59;;;2.60;100.00
20350;BME280;10332;50.208;18.988;2023-01-31T00:21:41;97306.84;;;2.55;100.00
20350;BME280;10332;50.208;18.988;2023-01-31T00:24:13;97312.53;;;2.62;100.00
20350;BME280;10332;50.208;18.988;2023-01-31T00:26:41;97320.72;;;2.70;100.00
20350;BME280;10332;50.208;18.988;2023-01-31T00:29:09;97314.75;;;2.70;100.00
20350;BME280;10332;50.208;18.988;2023-01-31T00:31:37;97314.13;;;2.65;100.00
20350;BME280;10332;50.208;18.988;2023-01-31T00:34:06;97329.28;;;2.71;100.00
20350;BME280;10332;50.208;18.988;2023-01-31T00:36:35;97329.28;;;2.71;100.00
20350;BME280;10332;50.208;18.988;2023-01-31T00:39:06;97334.75;;;2.82;100.00
20350;BME280;10332;50.208;18.988;2023-01-31T00:41:36;97336.09;;;2.72;100.00
20350;BME280;10332;50.208;18.988;2023-01-31T00:44:05;97330.78;;;2.75;100.00
20350;BME280;10332;50.208;18.988;2023-01-31T00:46:33;97336.78;;;2.75;100.00
20350;BME280;10332;50.208;18.988;2023-01-31T00:49:03;97323.97;;;2.74;100.00
20350;BME280;10332;50.208;18.988;2023-01-31T00:51:30;97328.97;;;2.77;100.00
20350;BME280;10332;50.208;18.988;2023-01-31T00:53:58;97336.19;;;2.70;100.00
20350;BME280;10332;50.208;18.988;2023-01-31T00:56:25;97335.34;;;2.70;100.00
20350;BME280;10332;50.208;18.988;2023-01-31T00:58:53;97333.81;;;2.66;100.00
20350;BME280;10332;50.208;18.988;2023-01-31T01:01:24;97339.59;;;2.71;100.00
20350;BME280;10332;50.208;18.988;2023-01-31T01:03:53;97338.53;;;2.75;100.00
20350;BME280;10332;50.208;18.988;2023-01-31T01:06:22;97343.50;;;2.78;100.00
20350;BME280;10332;50.208;18.988;2023-01-31T01:08:50;97346.88;;;2.80;100.00
20350;BME280;10332;50.208;18.988;2023-01-31T01:11:24;97352.88;;;2.80;100.00
20350;BME280;10332;50.208;18.988;2023-01-31T01:13:53;97348.66;;;2.78;100.00
20350;BME280;10332;50.208;18.988;2023-01-31T01:16:35;97341.56;;;2.83;100.00
20350;BME280;10332;50.208;18.988;2023-01-31T01:19:06;97355.94;;;2.87;100.00
20350;BME280;10332;50.208;18.988;2023-01-31T01:21:34;97355.44;;;2.98;100.00
20350;BME280;10332;50.208;18.988;2023-01-31T01:24:16;97360.59;;;2.98;100.00
20350;BME280;10332;50.208;18.988;2023-01-31T01:26:44;97365.59;;;3.01;100.00
20350;BME280;10332;50.208;18.988;2023-01-31T01:29:12;97356.13;;;3.01;100.00
20350;BME280;10332;50.208;18.988;2023-01-31T01:31:40;97372.25;;;3.05;100.00
20350;BME280;10332;50.208;18.988;2023-01-31T01:34:13;97371.41;;;3.04;99.95
20350;BME280;10332;50.208;18.988;2023-01-31T01:36:42;97382.28;;;3.11;99.35
20350;BME280;10332;50.208;18.988;2023-01-31T01:39:14;97384.69;;;3.14;99.00
20350;BME280;10332;50.208;18.988;2023-01-31T01:41:43;97387.06;;;3.19;98.27
20350;BME280;10332;50.208;18.988;2023-01-31T01:44:53;97391.38;;;3.35;95.80
20350;BME280;10332;50.208;18.988;2023-01-31T01:52:57;97402.06;;;3.28;93.19
20350;BME280;10332;50.208;18.988;2023-01-31T01:55:35;97402.53;;;3.36;92.24
20350;BME280;10332;50.208;18.988;2023-01-31T01:58:12;97402.34;;;3.39;91.76
20350;BME280;10332;50.208;18.988;2023-01-31T02:00:41;97406.06;;;3.51;91.52
20350;BME280;10332;50.208;18.988;2023-01-31T02:03:10;97410.84;;;3.41;91.19
20350;BME280;10332;50.208;18.988;2023-01-31T02:05:52;97399.84;;;3.37;91.75
20350;BME280;10332;50.208;18.988;2023-01-31T02:08:23;97420.69;;;3.50;92.06
20350;BME280;10332;50.208;18.988;2023-01-31T02:10:59;97410.72;;;3.44;92.23
20350;BME280;10332;50.208;18.988;2023-01-31T02:13:29;97416.69;;;3.45;92.83
20350;BME280;10332;50.208;18.988;2023-01-31T02:15:57;97412.91;;;3.52;92.87
20350;BME280;10332;50.208;18.988;2023-01-31T02:18:26;97426.94;;;3.46;92.80
20350;BME280;10332;50.208;18.988;2023-01-31T02:24:40;97422.84;;;3.42;94.17
20350;BME280;10332;50.208;18.988;2023-01-31T02:30:50;97433.53;;;3.00;97.00
20350;BME280;10332;50.208;18.988;2023-01-31T02:33:38;97447.50;;;2.77;98.91
20350;BME280;10332;50.208;18.988;2023-01-31T02:36:49;97436.53;;;2.73;100.00
20350;BME280;10332;50.208;18.988;2023-01-31T02:39:39;97446.69;;;2.58;100.00
20350;BME280;10332;50.208;18.988;2023-01-31T02:42:23;97453.19;;;2.47;100.00
20350;BME280;10332;50.208;18.988;2023-01-31T02:45:08;97451.09;;;2.55;100.00
20350;BME280;10332;50.208;18.988;2023-01-31T02:48:25;97461.69;;;2.49;100.00
20350;BME280;10332;50.208;18.988;2023-01-31T02:51:25;97458.28;;;2.49;100.00
20350;BME280;10332;50.208;18.988;2023-01-31T02:54:20;97448.03;;;2.47;100.00
20350;BME280;10332;50.208;18.988;2023-01-31T02:57:11;97467.13;;;2.43;100.00
20350;BME280;10332;50.208;18.988;2023-01-31T02:59:39;97461.97;;;2.43;100.00
20350;BME280;10332;50.208;18.988;2023-01-31T03:02:08;97457.34;;;2.50;100.00
20350;BME280;10332;50.208;18.988;2023-01-31T03:04:35;97439.41;;;2.48;100.00
20350;BME280;10332;50.208;18.988;2023-01-31T03:07:15;97451.31;;;2.51;100.00
20350;BME280;10332;50.208;18.988;2023-01-31T03:09:53;97446.22;;;2.49;100.00
20350;BME280;10332;50.208;18.988;2023-01-31T03:15:41;97458.97;;;2.52;100.00
20350;BME280;10332;50.208;18.988;2023-01-31T03:19:00;97470.38;;;2.47;100.00
20350;BME280;10332;50.208;18.988;2023-01-31T03:21:47;97491.56;;;2.53;100.00
20350;BME280;10332;50.208;18.988;2023-01-31T03:24:18;97511.13;;;2.39;100.00
20350;BME280;10332;50.208;18.988;2023-01-31T03:26:48;97517.94;;;2.40;100.00
20350;BME280;10332;50.208;18.988;2023-01-31T03:29:16;97524.06;;;2.37;100.00
20350;BME280;10332;50.208;18.988;2023-01-31T03:34:42;97540.19;;;2.22;100.00
20350;BME280;10332;50.208;18.988;2023-01-31T03:37:46;97536.91;;;2.18;100.00
20350;BME280;10332;50.208;18.988;2023-01-31T03:42:57;97563.69;;;2.14;100.00
20350;BME280;10332;50.208;18.988;2023-01-31T03:45:35;97563.50;;;2.19;100.00
20350;BME280;10332;50.208;18.988;2023-01-31T03:48:07;97552.44;;;2.17;100.00
20350;BME280;10332;50.208;18.988;2023-01-31T03:50:51;97545.47;;;2.19;100.00
20350;BME280;10332;50.208;18.988;2023-01-31T03:53:47;97549.91;;;2.15;100.00
20350;BME280;10332;50.208;18.988;2023-01-31T03:56:25;97565.09;;;2.21;100.00
20350;BME280;10332;50.208;18.988;2023-01-31T03:59:02;97575.47;;;2.20;100.00
20350;BME280;10332;50.208;18.988;2023-01-31T04:01:34;97580.63;;;2.20;100.00
20350;BME280;10332;50.208;18.988;2023-01-31T04:04:18;97573.97;;;2.14;100.00
20350;BME280;10332;50.208;18.988;2023-01-31T04:06:47;97577.19;;;2.19;100.00
20350;BME280;10332;50.208;18.988;2023-01-31T04:09:15;97588.47;;;2.17;100.00
20350;BME280;10332;50.208;18.988;2023-01-31T04:11:48;97573.97;;;2.14;100.00
20350;BME280;10332;50.208;18.988;2023-01-31T04:14:16;97600.13;;;2.25;100.00
20350;BME280;10332;50.208;18.988;2023-01-31T04:16:44;97596.81;;;2.22;100.00
20350;BME280;10332;50.208;18.988;2023-01-31T04:19:12;97598.25;;;2.29;100.00
20350;BME280;10332;50.208;18.988;2023-01-31T04:21:39;97587.94;;;2.29;100.00
20350;BME280;10332;50.208;18.988;2023-01-31T04:24:06;97590.69;;;2.24;100.00
20350;BME280;10332;50.208;18.988;2023-01-31T04:26:36;97599.06;;;2.30;100.00
20350;BME280;10332;50.208;18.988;2023-01-31T04:29:04;97600.06;;;2.27;100.00
20350;BME280;10332;50.208;18.988;2023-01-31T04:31:32;97599.00;;;2.31;100.00
20350;BME280;10332;50.208;18.988;2023-01-31T04:33:59;97607.13;;;2.22;100.00
20350;BME280;10332;50.208;18.988;2023-01-31T04:36:27;97596.97;;;2.19;100.00
20350;BME280;10332;50.208;18.988;2023-01-31T04:38:54;97610.47;;;2.24;100.00
20350;BME280;10332;50.208;18.988;2023-01-31T04:41:22;97608.97;;;2.39;100.00
20350;BME280;10332;50.208;18.988;2023-01-31T04:43:49;97615.63;;;2.24;100.00
20350;BME280;10332;50.208;18.988;2023-01-31T04:46:17;97618.78;;;2.31;100.00
20350;BME280;10332;50.208;18.988;2023-01-31T04:48:44;97622.31;;;2.28;100.00
20350;BME280;10332;50.208;18.988;2023-01-31T04:51:12;97629.22;;;2.27;100.00
20350;BME280;10332;50.208;18.988;2023-01-31T04:53:42;97627.22;;;2.34;100.00
20350;BME280;10332;50.208;18.988;2023-01-31T04:56:10;97628.91;;;2.35;100.00
20350;BME280;10332;50.208;18.988;2023-01-31T04:58:37;97639.72;;;2.43;100.00
20350;BME280;10332;50.208;18.988;2023-01-31T05:01:05;97636.22;;;2.44;100.00
20350;BME280;10332;50.208;18.988;2023-01-31T05:03:32;97643.13;;;2.44;100.00
20350;BME280;10332;50.208;18.988;2023-01-31T05:06:00;97640.59;;;2.42;100.00
20350;BME280;10332;50.208;18.988;2023-01-31T05:08:27;97651.91;;;2.59;100.00
20350;BME280;10332;50.208;18.988;2023-01-31T05:11:04;97650.00;;;2.43;100.00
20350;BME280;10332;50.208;18.988;2023-01-31T05:13:34;97641.94;;;2.51;100.00
20350;BME280;10332;50.208;18.988;2023-01-31T05:16:09;97659.25;;;2.47;100.00
20350;BME280;10332;50.208;18.988;2023-01-31T05:18:38;97659.34;;;2.46;100.00
20350;BME280;10332;50.208;18.988;2023-01-31T05:21:06;97657.84;;;2.40;100.00
20350;BME280;10332;50.208;18.988;2023-01-31T05:23:34;97664.28;;;2.50;100.00
20350;BME280;10332;50.208;18.988;2023-01-31T05:26:02;97663.84;;;2.41;100.00
20350;BME280;10332;50.208;18.988;2023-01-31T05:28:30;97675.34;;;2.32;100.00
20350;BME280;10332;50.208;18.988;2023-01-31T05:31:06;97680.34;;;2.37;99.35
20350;BME280;10332;50.208;18.988;2023-01-31T05:33:34;97685.56;;;2.35;98.69
20350;BME280;10332;50.208;18.988;2023-01-31T05:36:02;97689.28;;;2.28;98.95
20350;BME280;10332;50.208;18.988;2023-01-31T05:38:30;97689.59;;;2.41;98.81
20350;BME280;10332;50.208;18.988;2023-01-31T05:40:57;97695.03;;;2.35;98.87
20350;BME280;10332;50.208;18.988;2023-01-31T05:43:25;97694.03;;;2.37;99.22
20350;BME280;10332;50.208;18.988;2023-01-31T05:45:52;97700.94;;;2.37;98.98
20350;BME280;10332;50.208;18.988;2023-01-31T05:48:20;97705.31;;;2.35;99.10
20350;BME280;10332;50.208;18.988;2023-01-31T05:50:48;97703.91;;;2.48;99.17
20350;BME280;10332;50.208;18.988;2023-01-31T05:53:16;97703.13;;;2.46;98.61
20350;BME280;10332;50.208;18.988;2023-01-31T05:55:46;97709.13;;;2.46;98.19
20350;BME280;10332;50.208;18.988;2023-01-31T05:58:13;97721.34;;;2.41;97.59
20350;BME280;10332;50.208;18.988;2023-01-31T06:00:41;97723.34;;;2.35;97.45
20350;BME280;10332;50.208;18.988;2023-01-31T06:03:09;97729.97;;;2.40;97.42
20350;BME280;10332;50.208;18.988;2023-01-31T06:05:36;97738.75;;;2.36;97.02
20350;BME280;10332;50.208;18.988;2023-01-31T06:08:06;97741.25;;;2.38;97.07
20350;BME280;10332;50.208;18.988;2023-01-31T06:10:33;97731.78;;;2.38;97.37
20350;BME280;10332;50.208;18.988;2023-01-31T06:13:01;97735.94;;;2.41;97.33
20350;BME280;10332;50.208;18.988;2023-01-31T06:15:28;97743.63;;;2.42;97.65
20350;BME280;10332;50.208;18.988;2023-01-31T06:17:56;97751.63;;;2.36;97.44
20350;BME280;10332;50.208;18.988;2023-01-31T06:20:25;97752.25;;;2.41;97.21
20350;BME280;10332;50.208;18.988;2023-01-31T06:22:52;97756.88;;;2.33;97.90
20350;BME280;10332;50.208;18.988;2023-01-31T06:25:19;97761.84;;;2.38;97.70
20350;BME280;10332;50.208;18.988;2023-01-31T06:27:47;97769.19;;;2.47;97.33
20350;BME280;10332;50.208;18.988;2023-01-31T06:30:15;97767.16;;;2.55;96.97
20350;BME280;10332;50.208;18.988;2023-01-31T06:32:42;97771.94;;;2.42;96.50
20350;BME280;10332;50.208;18.988;2023-01-31T06:35:10;97785.88;;;2.38;96.75
20350;BME280;10332;50.208;18.988;2023-01-31T06:37:37;97784.50;;;2.30;96.94
20350;BME280;10332;50.208;18.988;2023-01-31T06:40:05;97790.25;;;2.36;96.73
20350;BME280;10332;50.208;18.988;2023-01-31T06:42:33;97802.09;;;2.40;96.70
20350;BME280;10332;50.208;18.988;2023-01-31T06:45:00;97801.91;;;2.45;96.55
20350;BME280;10332;50.208;18.988;2023-01-31T06:47:28;97803.22;;;2.55;96.41
20350;BME280;10332;50.208;18.988;2023-01-31T06:49:55;97809.66;;;2.45;95.52
20350;BME280;10332;50.208;18.988;2023-01-31T06:52:22;97818.16;;;2.47;95.23
20350;BME280;10332;50.208;18.988;2023-01-31T06:54:50;97830.25;;;2.45;95.30
20350;BME280;10332;50.208;18.988;2023-01-31T06:57:17;97831.44;;;2.58;94.62
20350;BME280;10332;50.208;18.988;2023-01-31T06:59:45;97840.78;;;2.61;94.41
20350;BME280;10332;50.208;18.988;2023-01-31T07:02:12;97835.69;;;2.59;94.19
20350;BME280;10332;50.208;18.988;2023-01-31T07:04:40;97835.06;;;2.74;93.87
20350;BME280;10332;50.208;18.988;2023-01-31T07:07:07;97842.78;;;2.74;93.55
20350;BME280;10332;50.208;18.988;2023-01-31T07:09:35;97838.84;;;2.88;93.17
20350;BME280;10332;50.208;18.988;2023-01-31T07:12:02;97840.75;;;2.82;92.71
20350;BME280;10332;50.208;18.988;2023-01-31T07:14:30;97839.00;;;2.83;92.61
20350;BME280;10332;50.208;18.988;2023-01-31T07:16:58;97843.75;;;2.72;92.04
20350;BME280;10332;50.208;18.988;2023-01-31T07:19:26;97841.72;;;2.80;92.11
20350;BME280;10332;50.208;18.988;2023-01-31T07:21:53;97838.22;;;2.81;91.99
20350;BME280;10332;50.208;18.988;2023-01-31T07:24:20;97850.34;;;2.79;91.72
20350;BME280;10332;50.208;18.988;2023-01-31T07:26:51;97850.59;;;2.93;90.72
20350;BME280;10332;50.208;18.988;2023-01-31T07:29:20;97846.34;;;2.92;90.60
20350;BME280;10332;50.208;18.988;2023-01-31T07:31:47;97852.41;;;2.91;90.38
20350;BME280;10332;50.208;18.988;2023-01-31T07:34:15;97856.28;;;3.01;88.92
20350;BME280;10332;50.208;18.988;2023-01-31T07:36:43;97857.38;;;2.96;88.78
20350;BME280;10332;50.208;18.988;2023-01-31T07:39:10;97858.09;;;2.99;89.20
20350;BME280;10332;50.208;18.988;2023-01-31T07:41:38;97857.81;;;3.05;89.27
20350;BME280;10332;50.208;18.988;2023-01-31T07:44:05;97871.31;;;3.12;88.56
20350;BME280;10332;50.208;18.988;2023-01-31T07:46:34;97868.63;;;3.15;88.36
20350;BME280;10332;50.208;18.988;2023-01-31T07:49:02;97881.00;;;3.27;88.12
20350;BME280;10332;50.208;18.988;2023-01-31T07:51:29;97881.31;;;3.20;87.69
20350;BME280;10332;50.208;18.988;2023-01-31T07:53:57;97897.44;;;3.25;87.24
20350;BME280;10332;50.208;18.988;2023-01-31T07:56:24;97899.19;;;3.45;87.02
20350;BME280;10332;50.208;18.988;2023-01-31T07:58:52;97895.63;;;3.27;87.25
20350;BME280;10332;50.208;18.988;2023-01-31T08:01:24;97884.72;;;3.40;86.53
20350;BME280;10332;50.208;18.988;2023-01-31T08:04:13;97900.25;;;3.39;86.26
20350;BME280;10332;50.208;18.988;2023-01-31T08:06:52;97884.84;;;3.37;86.17
20350;BME280;10332;50.208;18.988;2023-01-31T08:09:22;97892.06;;;3.50;85.74
20350;BME280;10332;50.208;18.988;2023-01-31T08:11:51;97893.03;;;3.47;86.03
20350;BME280;10332;50.208;18.988;2023-01-31T08:14:19;97898.53;;;3.60;85.77
20350;BME280;10332;50.208;18.988;2023-01-31T08:16:51;97913.63;;;3.69;85.58
20350;BME280;10332;50.208;18.988;2023-01-31T08:19:19;97909.84;;;3.76;84.90
20350;BME280;10332;50.208;18.988;2023-01-31T08:21:47;97913.13;;;3.80;84.31
20350;BME280;10332;50.208;18.988;2023-01-31T08:24:15;97914.97;;;3.78;84.30
20350;BME280;10332;50.208;18.988;2023-01-31T08:26:43;97919.22;;;3.58;84.72
20350;BME280;10332;50.208;18.988;2023-01-31T08:29:10;97922.31;;;3.66;84.90
20350;BME280;10332;50.208;18.988;2023-01-31T08:31:39;97937.41;;;3.76;84.14
20350;BME280;10332;50.208;18.988;2023-01-31T08:34:08;97934.31;;;3.67;84.00
20350;BME280;10332;50.208;18.988;2023-01-31T08:36:36;97933.66;;;3.83;83.89
20350;BME280;10332;50.208;18.988;2023-01-31T08:39:03;97936.03;;;3.87;83.63
20350;BME280;10332;50.208;18.988;2023-01-31T08:41:33;97950.22;;;3.77;83.72
20350;BME280;10332;50.208;18.988;2023-01-31T08:44:02;97941.72;;;3.95;83.17
20350;BME280;10332;50.208;18.988;2023-01-31T08:46:34;97948.59;;;3.95;82.89
20350;BME280;10332;50.208;18.988;2023-01-31T08:49:05;97956.66;;;4.08;82.75
20350;BME280;10332;50.208;18.988;2023-01-31T08:51:33;97962.25;;;4.17;82.32
20350;BME280;10332;50.208;18.988;2023-01-31T08:54:00;97956.66;;;4.08;81.35
20350;BME280;10332;50.208;18.988;2023-01-31T08:56:28;97963.03;;;4.19;81.01
20350;BME280;10332;50.208;18.988;2023-01-31T08:58:56;97961.75;;;4.09;80.94
20350;BME280;10332;50.208;18.988;2023-01-31T09:01:24;97965.69;;;4.18;80.47
20350;BME280;10332;50.208;18.988;2023-01-31T09:03:52;97956.88;;;4.22;80.35
20350;BME280;10332;50.208;18.988;2023-01-31T09:06:26;97968.44;;;4.13;79.43
20350;BME280;10332;50.208;18.988;2023-01-31T09:08:57;97979.34;;;4.20;78.85
20350;BME280;10332;50.208;18.988;2023-01-31T09:11:27;97967.69;;;4.30;78.67
20350;BME280;10332;50.208;18.988;2023-01-31T09:13:57;97969.59;;;4.26;78.06
20350;BME280;10332;50.208;18.988;2023-01-31T09:16:24;97979.75;;;4.11;77.83
20350;BME280;10332;50.208;18.988;2023-01-31T09:18:53;97980.19;;;4.20;77.66
20350;BME280;10332;50.208;18.988;2023-01-31T09:21:23;97979.34;;;4.20;76.91
20350;BME280;10332;50.208;18.988;2023-01-31T09:23:59;97985.34;;;4.41;77.34
20350;BME280;10332;50.208;18.988;2023-01-31T09:26:29;97987.84;;;4.42;76.31
20350;BME280;10332;50.208;18.988;2023-01-31T09:28:57;97991.13;;;4.46;76.54
20350;BME280;10332;50.208;18.988;2023-01-31T09:31:27;97994.88;;;4.57;73.90
20350;BME280;10332;50.208;18.988;2023-01-31T09:33:57;97990.91;;;4.69;74.13
20350;BME280;10332;50.208;18.988;2023-01-31T09:36:25;97985.78;;;4.49;73.91
20350;BME280;10332;50.208;18.988;2023-01-31T09:38:56;97991.34;;;4.60;73.45
20350;BME280;10332;50.208;18.988;2023-01-31T09:41:46;98000.97;;;4.56;73.56
20350;BME280;10332;50.208;18.988;2023-01-31T09:44:37;97997.75;;;4.70;73.35
20350;BME280;10332;50.208;18.988;2023-01-31T09:47:15;97992.16;;;4.79;73.16
20350;BME280;10332;50.208;18.988;2023-01-31T09:50:33;98006.81;;;4.98;71.75
20350;BME280;10332;50.208;18.988;2023-01-31T09:53:02;98008.06;;;5.08;71.28
20350;BME280;10332;50.208;18.988;2023-01-31T09:55:54;98010.75;;;4.88;70.36
20350;BME280;10332;50.208;18.988;2023-01-31T10:07:04;98000.13;;;4.56;75.99
20350;BME280;10332;50.208;18.988;2023-01-31T10:09:39;98002.16;;;4.68;75.84
20350;BME280;10332;50.208;18.988;2023-01-31T10:12:29;98004.66;;;4.89;75.82
20350;BME280;10332;50.208;18.988;2023-01-31T10:15:12;98005.44;;;4.91;77.29
20350;BME280;10332;50.208;18.988;2023-01-31T10:17:49;98004.47;;;5.10;77.40
20350;BME280;10332;50.208;18.988;2023-01-31T10:20:31;98000.84;;;5.15;77.43
20350;BME280;10332;50.208;18.988;2023-01-31T10:23:09;97987.50;;;5.41;76.90
20350;BME280;10332;50.208;18.988;2023-01-31T10:25:59;97992.34;;;5.12;75.37
20350;BME280;10332;50.208;18.988;2023-01-31T10:31:29;97985.28;;;4.97;74.67
20350;BME280;10332;50.208;18.988;2023-01-31T10:34:26;97982.06;;;5.46;72.22
20350;BME280;10332;50.208;18.988;2023-01-31T10:39:36;97979.47;;;7.85;66.36
20350;BME280;10332;50.208;18.988;2023-01-31T10:42:35;97979.84;;;7.93;60.30
20350;BME280;10332;50.208;18.988;2023-01-31T10:45:25;97993.34;;;7.10;63.22
20350;BME280;10332;50.208;18.988;2023-01-31T10:48:16;97986.91;;;7.01;63.93
20350;BME280;10332;50.208;18.988;2023-01-31T10:54:58;97984.56;;;6.65;64.27
20350;BME280;10332;50.208;18.988;2023-01-31T10:57:05;97975.31;;;6.44;63.98
20350;BME280;10332;50.208;18.988;2023-01-31T10:59:42;97983.09;;;6.44;63.83
20350;BME280;10332;50.208;18.988;2023-01-31T11:02:25;97975.31;;;7.23;62.65
20350;BME280;10332;50.208;18.988;2023-01-31T11:04:57;97981.31;;;7.39;60.04
20350;BME280;10332;50.208;18.988;2023-01-31T11:07:29;97979.19;;;7.76;59.50
20350;BME280;10332;50.208;18.988;2023-01-31T11:09:57;97978.84;;;8.10;59.31
20350;BME280;10332;50.208;18.988;2023-01-31T11:12:52;97972.69;;;7.97;58.98
20350;BME280;10332;50.208;18.988;2023-01-31T11:15:25;97983.09;;;7.53;59.12
20350;BME280;10332;50.208;18.988;2023-01-31T11:17:59;97982.94;;;7.56;58.55
20350;BME280;10332;50.208;18.988;2023-01-31T11:20:34;97990.06;;;7.06;59.63
20350;BME280;10332;50.208;18.988;2023-01-31T11:23:05;97973.91;;;6.70;61.06
20350;BME280;10332;50.208;18.988;2023-01-31T11:25:34;97964.59;;;6.34;62.63
20350;BME280;10332;50.208;18.988;2023-01-31T11:28:37;97960.56;;;6.13;64.00
20350;BME280;10332;50.208;18.988;2023-01-31T11:31:16;97958.91;;;6.12;64.42
20350;BME280;10332;50.208;18.988;2023-01-31T11:34:00;97958.66;;;6.32;64.24
20350;BME280;10332;50.208;18.988;2023-01-31T11:36:40;97960.56;;;6.13;64.96
20350;BME280;10332;50.208;18.988;2023-01-31T11:41:54;97951.28;;;5.91;65.38
20350;BME280;10332;50.208;18.988;2023-01-31T11:44:23;97945.75;;;6.15;65.26
20350;BME280;10332;50.208;18.988;2023-01-31T11:46:55;97946.25;;;5.88;65.52
20350;BME280;10332;50.208;18.988;2023-01-31T11:49:40;97940.44;;;6.01;65.19
20350;BME280;10332;50.208;18.988;2023-01-31T11:52:19;97939.16;;;6.25;65.46
20350;BME280;10332;50.208;18.988;2023-01-31T11:55:04;97937.69;;;6.52;63.93
20350;BME280;10332;50.208;18.988;2023-01-31T11:57:36;97937.59;;;6.54;63.58
20350;BME280;10332;50.208;18.988;2023-01-31T12:02:57;97923.50;;;7.35;61.88
20350;BME280;10332;50.208;18.988;2023-01-31T12:05:43;97925.56;;;7.45;61.06
20350;BME280;10332;50.208;18.988;2023-01-31T12:08:35;97920.59;;;6.96;62.31
20350;BME280;10332;50.208;18.988;2023-01-31T12:11:22;97919.41;;;7.01;63.06
20350;BME280;10332;50.208;18.988;2023-01-31T12:14:23;97915.09;;;6.86;62.48
20350;BME280;10332;50.208;18.988;2023-01-31T12:16:53;97913.22;;;7.04;62.13
20350;BME280;10332;50.208;18.988;2023-01-31T12:19:52;97916.44;;;6.77;62.51
20350;BME280;10332;50.208;18.988;2023-01-31T12:23:26;97918.19;;;6.93;62.74
20350;BME280;10332;50.208;18.988;2023-01-31T12:26:12;97901.44;;;9.76;56.87
20350;BME280;10332;50.208;18.988;2023-01-31T12:29:06;97901.75;;;11.77;49.65
20350;BME280;10332;50.208;18.988;2023-01-31T12:46:19;97887.44;;;9.38;51.98
20350;BME280;10332;50.208;18.988;2023-01-31T12:55:17;97892.03;;;7.56;58.21
20350;BME280;10332;50.208;18.988;2023-01-31T13:03:28;97898.09;;;6.65;63.89
20350;BME280;10332;50.208;18.988;2023-01-31T13:06:10;97903.38;;;6.63;64.62
20350;BME280;10332;50.208;18.988;2023-01-31T13:08:50;97886.81;;;7.11;63.69
20350;BME280;10332;50.208;18.988;2023-01-31T13:14:35;97887.22;;;8.62;60.87
20350;BME280;10332;50.208;18.988;2023-01-31T13:17:10;97879.00;;;12.24;52.60
20350;BME280;10332;50.208;18.988;2023-01-31T13:19:49;97882.50;;;12.99;49.12
20350;BME280;10332;50.208;18.988;2023-01-31T13:22:51;97873.78;;;10.85;51.08
20350;BME280;10332;50.208;18.988;2023-01-31T13:28:22;97870.41;;;8.80;56.11
20350;BME280;10332;50.208;18.988;2023-01-31T13:31:04;97864.56;;;8.09;59.04
20350;BME280;10332;50.208;18.988;2023-01-31T13:33:40;97862.59;;;7.69;60.50
20350;BME280;10332;50.208;18.988;2023-01-31T13:36:34;97864.00;;;7.47;62.03
20350;BME280;10332;50.208;18.988;2023-01-31T13:39:30;97875.34;;;6.70;65.39
20350;BME280;10332;50.208;18.988;2023-01-31T13:41:59;97871.38;;;6.48;67.33
20350;BME280;10332;50.208;18.988;2023-01-31T13:44:27;97880.16;;;6.30;68.48
20350;BME280;10332;50.208;18.988;2023-01-31T13:50:28;97883.00;;;5.92;71.25
20350;BME280;10332;50.208;18.988;2023-01-31T13:52:59;97875.25;;;5.92;71.99
20350;BME280;10332;50.208;18.988;2023-01-31T13:55:41;97885.22;;;5.83;73.39
20350;BME280;10332;50.208;18.988;2023-01-31T13:58:27;97889.31;;;5.54;76.62
20350;BME280;10332;50.208;18.988;2023-01-31T14:01:14;97886.38;;;5.27;78.82
20350;BME280;10332;50.208;18.988;2023-01-31T14:06:56;97884.50;;;5.13;80.83
20350;BME280;10332;50.208;18.988;2023-01-31T14:14:55;97875.50;;;5.20;80.59
20350;BME280;10332;50.208;18.988;2023-01-31T14:22:36;97856.94;;;4.77;82.77
20350;BME280;10332;50.208;18.988;2023-01-31T14:25:12;97860.25;;;4.62;83.48
20350;BME280;10332;50.208;18.988;2023-01-31T14:30:44;97848.41;;;4.39;84.89
20350;BME280;10332;50.208;18.988;2023-01-31T14:33:22;97837.75;;;4.28;85.90
20350;BME280;10332;50.208;18.988;2023-01-31T14:51:08;97835.81;;;4.14;86.95
20350;BME280;10332;50.208;18.988;2023-01-31T14:54:05;97827.28;;;4.12;87.25
20350;BME280;10332;50.208;18.988;2023-01-31T14:57:27;97825.78;;;4.08;87.32
20350;BME280;10332;50.208;18.988;2023-01-31T15:00:27;97832.38;;;3.95;88.30
20350;BME280;10332;50.208;18.988;2023-01-31T15:03:24;97828.69;;;3.82;89.27
20350;BME280;10332;50.208;18.988;2023-01-31T15:06:14;97831.22;;;3.83;89.56
20350;BME280;10332;50.208;18.988;2023-01-31T15:08:47;97829.94;;;3.73;90.36
20350;BME280;10332;50.208;18.988;2023-01-31T15:11:41;97836.63;;;3.58;90.84
20350;BME280;10332;50.208;18.988;2023-01-31T15:14:36;97837.41;;;3.60;91.31
20350;BME280;10332;50.208;18.988;2023-01-31T15:17:20;97823.19;;;3.52;92.35
20350;BME280;10332;50.208;18.988;2023-01-31T15:20:17;97823.94;;;3.54;92.79
20350;BME280;10332;50.208;18.988;2023-01-31T15:22:47;97818.00;;;3.52;92.94
20350;BME280;10332;50.208;18.988;2023-01-31T15:25:30;97812.22;;;3.47;93.43
20350;BME280;10332;50.208;18.988;2023-01-31T15:28:02;97816.53;;;3.46;93.88
20350;BME280;10332;50.208;18.988;2023-01-31T15:30:34;97814.53;;;3.53;93.33